Clairmont, Canada
Current Conditions -  °F | °C
As of 2:00 AM on Tuesday 21 Oct 2014 (Local Time) from CYQU Reporting Station
Broken Clouds Broken Clouds  
Wind Chill: 39°   Ceiling: 16000
Heat Index: 39°   Visibility: 25mi
Dew Point: 37°   Wind: 3mph
Humidity: 93%   Direction: 210°SSW
Pressure: 29.56"   Gusts: NA
Location:  55.24°N, 118.78°W
Report Text: CYQU 210800Z 21003KT 25SM BKN160 04/03 A2956 RMK AC6 SLP026
Loading
Personal Weather Stations






























Interactive Weather Map
Tropical Storm Tracking
New forecast layout! Learn more

10-Day Weather Forecast

Advertisements
Track Severe Weather on mobile